Airport View

Enter AWOS ICAO identifier for current METAR.

ex. KFNL

KHRJ 192110Z AUTO 22003KT 10SM -RA SCT095 SCT110 23/19 A3003 RMK AO2 T02290185

19 Aug 2019 21:21

Frequency: 119.025

Phone: 910-814-3946

Other Area AWOS: KFBG - KJNX - KPOB - KTTA

TAF AMD KFBG 192000Z 1920/2023 23009KT 9999 SCT020 SCT050 QNH2999INS TEMPO 1920/1923 VRB20G35KT 6000 TSRA BKN020CB BKN040 BECMG 2010/2011 23009KT 9999 SCT010 BKN150 QNH3013INS BECMG 2013/2014 24006KT 9999 SCT060 BKN150 QNH3013INS BECMG 2017/2018 21006KT 9000 -SHRA VCTS BKN020CB BKN050 QNH3013INS BECMG 2020/2021 21006KT 9999 NSW SCT050 BKN150 QNH3009INS TX35/1920Z TN21/2008Z